Time;durP1;ratioP1;P1;durP2;ratioP2;P2;SDS_P1;SDS_P2;PMS_P1;PMS_P2;Temp;Humidity;BMP_temperature;BMP_pressure;BME280_temperature;BME280_humidity;BME280_pressure;Samples;Min_cycle;Max_cycle;Signal;HPM_P1;HPM_P2
2024/03/16 00:02:20;;;;;;;3.03;0.98;;;;;;;12.34;100.00;100051.25;5125827;28;20027;-71
2024/03/16 00:04:50;;;;;;;2.08;0.77;;;;;;;12.44;100.00;100057.69;5124197;28;20622;-71
2024/03/16 00:07:21;;;;;;;3.42;0.82;;;;;;;12.40;100.00;100048.31;5125212;28;20041;-71
2024/03/16 00:09:51;;;;;;;3.40;0.90;;;;;;;12.46;100.00;100055.00;5122796;28;20503;-71
2024/03/16 00:12:24;;;;;;;2.72;0.85;;;;;;;12.43;100.00;100050.75;5120773;28;20354;-71
2024/03/16 00:14:55;;;;;;;3.45;0.90;;;;;;;12.42;100.00;100054.31;5125561;28;20062;-72
2024/03/16 00:17:26;;;;;;;2.72;0.90;;;;;;;12.37;100.00;100044.97;5129955;28;20035;-71
2024/03/16 00:19:56;;;;;;;4.45;0.90;;;;;;;12.45;100.00;100048.06;5126779;28;20038;-71
2024/03/16 00:22:26;;;;;;;2.88;0.93;;;;;;;12.30;100.00;100041.00;5130620;28;20026;-71
2024/03/16 00:24:56;;;;;;;3.58;0.88;;;;;;;12.32;100.00;100037.34;5128455;28;20118;-71
2024/03/16 00:27:27;;;;;;;3.22;1.13;;;;;;;12.39;100.00;100041.38;5130100;28;20212;-72
2024/03/16 00:29:57;;;;;;;2.88;1.10;;;;;;;12.37;100.00;100055.47;5128206;28;20078;-71
2024/03/16 00:32:27;;;;;;;2.75;1.00;;;;;;;12.19;100.00;100057.25;5130223;28;20054;-71
2024/03/16 00:34:58;;;;;;;2.97;1.20;;;;;;;12.29;100.00;100058.47;5127796;28;20539;-71
2024/03/16 00:37:28;;;;;;;3.20;1.10;;;;;;;12.30;100.00;100054.91;5130418;28;20027;-71
2024/03/16 00:39:58;;;;;;;2.35;1.30;;;;;;;12.31;100.00;100045.31;5128729;28;20411;-71
2024/03/16 00:42:29;;;;;;;5.35;1.13;;;;;;;12.31;100.00;100056.63;5146882;28;20405;-71
2024/03/16 00:44:59;;;;;;;3.60;0.98;;;;;;;12.37;100.00;100052.84;5125566;28;20043;-71
2024/03/16 00:47:29;;;;;;;5.72;1.33;;;;;;;12.32;100.00;100042.59;5127778;28;20030;-71
2024/03/16 00:49:59;;;;;;;3.90;1.35;;;;;;;12.23;100.00;100048.31;5129169;28;20242;-71
2024/03/16 00:52:30;;;;;;;4.53;1.05;;;;;;;12.31;100.00;100046.13;5124392;28;20094;-71
2024/03/16 00:55:00;;;;;;;1.50;0.68;;;;;;;12.34;100.00;100046.00;5138948;28;20050;-71
2024/03/16 00:57:30;;;;;;;3.20;0.80;;;;;;;12.30;100.00;100041.81;5128415;28;20027;-71
2024/03/16 01:00:01;;;;;;;1.48;0.70;;;;;;;12.34;100.00;100043.38;5125734;28;20039;-71
2024/03/16 01:02:31;;;;;;;3.33;0.70;;;;;;;12.31;100.00;100038.28;5127506;28;20574;-72
2024/03/16 01:05:02;;;;;;;1.45;0.80;;;;;;;12.27;100.00;100033.28;5123506;28;20035;-72
2024/03/16 01:07:32;;;;;;;3.05;0.68;;;;;;;12.30;100.00;100039.19;5125479;28;20086;-71
2024/03/16 01:10:03;;;;;;;4.20;0.80;;;;;;;12.25;100.00;100029.88;5125368;28;20616;-71
2024/03/16 01:12:33;;;;;;;3.80;0.70;;;;;;;12.24;100.00;100029.03;5127121;28;20402;-71
2024/03/16 01:15:05;;;;;;;3.65;0.80;;;;;;;12.28;100.00;100035.00;5124211;28;20058;-71
2024/03/16 01:17:36;;;;;;;5.63;0.75;;;;;;;12.24;100.00;100039.53;5129114;28;20031;-71
2024/03/16 01:20:07;;;;;;;2.88;0.90;;;;;;;12.27;100.00;100044.59;5127313;28;20019;-71
2024/03/16 01:22:38;;;;;;;2.90;0.80;;;;;;;12.23;100.00;100045.69;5127172;28;20027;-71
2024/03/16 01:25:08;;;;;;;5.97;0.85;;;;;;;12.23;100.00;100043.06;5123814;28;20031;-71
2024/03/16 01:27:39;;;;;;;3.05;0.80;;;;;;;12.29;100.00;100034.88;5129188;28;20033;-71
2024/03/16 01:30:09;;;;;;;1.92;0.80;;;;;;;12.25;100.00;100035.13;5125522;28;20031;-71
2024/03/16 01:32:40;;;;;;;2.38;0.88;;;;;;;12.34;100.00;100025.03;5128546;28;20034;-71
2024/03/16 01:35:10;;;;;;;2.83;0.90;;;;;;;12.34;100.00;100035.53;5127746;28;20027;-72
2024/03/16 01:37:41;;;;;;;3.13;0.80;;;;;;;12.27;100.00;100041.97;5127778;28;20030;-71
2024/03/16 01:40:11;;;;;;;2.67;0.70;;;;;;;12.33;100.00;100041.66;5126507;28;20035;-72
2024/03/16 01:42:41;;;;;;;5.63;1.10;;;;;;;12.16;100.00;100041.66;5128395;28;20038;-71
2024/03/16 01:45:14;;;;;;;4.68;1.00;;;;;;;12.03;100.00;100045.00;5117101;28;20648;-71
2024/03/16 01:47:45;;;;;;;3.28;0.82;;;;;;;12.02;100.00;100046.78;5126244;28;20035;-71
2024/03/16 01:50:19;;;;;;;4.85;1.05;;;;;;;11.93;100.00;100046.38;5125926;28;20027;-71
2024/03/16 01:52:49;;;;;;;2.60;1.23;;;;;;;11.98;100.00;100036.53;5125936;28;20502;-71
2024/03/16 01:55:20;;;;;;;4.60;1.10;;;;;;;11.94;100.00;100029.75;5128206;28;20054;-71
2024/03/16 01:57:51;;;;;;;6.43;1.10;;;;;;;11.90;100.00;100026.44;5124387;28;20030;-71
2024/03/16 02:00:21;;;;;;;3.05;1.20;;;;;;;11.88;100.00;100030.91;5129024;28;20035;-71
2024/03/16 02:02:52;;;;;;;5.38;1.15;;;;;;;11.85;100.00;100031.06;5126169;28;20219;-71
2024/03/16 02:05:22;;;;;;;6.05;1.40;;;;;;;11.79;100.00;100031.34;5128843;28;20446;-71
2024/03/16 02:07:53;;;;;;;3.65;1.30;;;;;;;11.79;100.00;100035.75;5139446;28;20031;-71
2024/03/16 02:10:24;;;;;;;3.78;1.13;;;;;;;11.66;100.00;100040.72;5143358;28;20037;-72
2024/03/16 02:12:54;;;;;;;4.38;1.30;;;;;;;11.69;100.00;100037.97;5124953;28;20395;-71
2024/03/16 02:15:24;;;;;;;3.50;1.15;;;;;;;11.66;100.00;100035.50;5129378;28;20023;-71
2024/03/16 02:17:55;;;;;;;3.72;1.23;;;;;;;11.63;100.00;100035.63;5121843;28;20035;-71
2024/03/16 02:20:26;;;;;;;4.63;1.13;;;;;;;11.61;100.00;100042.69;5128598;28;20019;-71
2024/03/16 02:22:56;;;;;;;4.72;1.48;;;;;;;11.58;100.00;100042.84;5125138;28;20043;-71
2024/03/16 02:25:27;;;;;;;4.28;1.27;;;;;;;11.58;100.00;100048.09;5129215;28;20610;-71
2024/03/16 02:27:57;;;;;;;4.68;1.40;;;;;;;11.65;100.00;100049.47;5139335;28;20031;-71
2024/03/16 02:30:27;;;;;;;8.13;1.27;;;;;;;11.74;100.00;100054.28;5129243;28;20047;-71
2024/03/16 02:32:58;;;;;;;6.13;1.48;;;;;;;11.74;100.00;100050.78;5124111;28;20190;-71
2024/03/16 02:35:29;;;;;;;6.65;1.40;;;;;;;11.84;100.00;100050.31;5122412;28;20081;-71
2024/03/16 02:37:59;;;;;;;4.15;1.50;;;;;;;11.84;100.00;100052.91;5125187;28;20038;-71
2024/03/16 02:40:29;;;;;;;4.70;1.40;;;;;;;11.81;100.00;100045.19;5128625;28;20037;-71
2024/03/16 02:42:59;;;;;;;3.70;1.27;;;;;;;11.74;100.00;100053.41;5124367;28;20308;-71
2024/03/16 02:45:30;;;;;;;4.07;1.33;;;;;;;11.80;100.00;100048.72;5126761;28;20053;-71
2024/03/16 02:48:00;;;;;;;3.65;1.20;;;;;;;11.73;100.00;100047.34;5121135;28;20023;-71
2024/03/16 02:50:30;;;;;;;4.50;1.33;;;;;;;11.68;100.00;100048.50;5126722;28;20026;-71
2024/03/16 02:53:01;;;;;;;3.67;1.30;;;;;;;11.70;100.00;100052.75;5122502;28;20415;-71
2024/03/16 02:55:31;;;;;;;3.92;1.27;;;;;;;11.79;100.00;100057.50;5142004;28;20035;-71
2024/03/16 02:58:01;;;;;;;2.38;1.00;;;;;;;11.62;100.00;100054.88;5121875;28;20123;-71
2024/03/16 03:00:32;;;;;;;3.22;1.33;;;;;;;11.67;100.00;100054.66;5141974;28;20035;-71
2024/03/16 03:03:02;;;;;;;3.40;1.35;;;;;;;11.60;100.00;100061.13;5122118;28;20364;-71
2024/03/16 03:05:32;;;;;;;4.75;1.40;;;;;;;11.57;100.00;100064.72;5120063;28;20081;-71
2024/03/16 03:08:04;;;;;;;5.63;1.10;;;;;;;11.54;100.00;100067.44;5119801;28;20275;-71
2024/03/16 03:10:34;;;;;;;6.25;1.15;;;;;;;11.44;100.00;100060.94;5126076;28;20042;-71
2024/03/16 03:13:05;;;;;;;3.20;1.38;;;;;;;11.40;100.00;100071.63;5124749;28;20031;-71
2024/03/16 03:15:35;;;;;;;3.65;1.05;;;;;;;11.25;100.00;100065.34;5140568;28;20027;-71
2024/03/16 03:18:05;;;;;;;4.90;1.35;;;;;;;11.27;100.00;100073.97;5117668;28;20023;-71
2024/03/16 03:20:36;;;;;;;3.50;1.27;;;;;;;11.29;100.00;100071.28;5119479;28;20102;-71
2024/03/16 03:23:08;;;;;;;3.05;1.08;;;;;;;11.32;100.00;100072.00;5118501;28;20035;-71
2024/03/16 03:25:38;;;;;;;5.50;1.95;;;;;;;11.37;100.00;100070.00;5122328;28;20050;-71
2024/03/16 03:28:09;;;;;;;3.60;1.17;;;;;;;11.32;100.00;100074.63;5117999;28;20035;-71
2024/03/16 03:30:39;;;;;;;6.03;1.30;;;;;;;11.29;100.00;100076.53;5119687;28;20030;-71
2024/03/16 03:33:10;;;;;;;4.25;1.20;;;;;;;11.40;100.00;100075.09;5117319;28;20401;-71
2024/03/16 03:35:40;;;;;;;3.38;1.30;;;;;;;11.52;100.00;100074.53;5121348;28;20034;-71
2024/03/16 03:38:11;;;;;;;5.65;1.65;;;;;;;11.56;100.00;100072.63;5117795;28;20122;-71
2024/03/16 03:40:41;;;;;;;4.50;1.13;;;;;;;11.57;100.00;100072.56;5135941;28;20027;-71
2024/03/16 03:43:19;;;;;;;3.67;1.50;;;;;;;11.59;100.00;100077.75;5117792;28;20053;-71
2024/03/16 03:45:50;;;;;;;2.95;1.40;;;;;;;11.66;100.00;100077.38;5136058;28;20014;-71
2024/03/16 03:50:58;;;;;;;5.65;1.67;;;;;;;11.76;100.00;100073.38;5120965;28;20577;-71
2024/03/16 03:53:28;;;;;;;5.57;1.40;;;;;;;11.70;100.00;100072.81;5121605;28;20031;-71
2024/03/16 03:56:01;;;;;;;4.25;1.20;;;;;;;11.73;100.00;100072.66;5122310;28;20213;-70
2024/03/16 03:58:31;;;;;;;5.35;1.23;;;;;;;11.69;100.00;100079.84;5123196;28;20023;-71
2024/03/16 04:01:02;;;;;;;5.47;1.50;;;;;;;11.67;100.00;100072.97;5120545;28;20038;-71
2024/03/16 04:03:32;;;;;;;4.63;1.45;;;;;;;11.76;100.00;100073.38;5122475;28;20122;-71
2024/03/16 04:06:02;;;;;;;6.97;1.48;;;;;;;11.74;100.00;100066.50;5120652;28;20027;-71
2024/03/16 04:08:33;;;;;;;5.13;1.38;;;;;;;11.72;100.00;100066.59;5122134;28;20114;-71
2024/03/16 04:11:04;;;;;;;7.85;1.30;;;;;;;11.75;100.00;100084.78;5121250;28;20027;-71
2024/03/16 04:13:34;;;;;;;7.97;1.45;;;;;;;11.75;100.00;100070.84;5120401;28;20027;-71
2024/03/16 04:16:05;;;;;;;3.38;1.00;;;;;;;11.80;100.00;100074.91;5120498;28;20037;-71
2024/03/16 04:18:35;;;;;;;4.13;1.27;;;;;;;11.86;100.00;100077.25;5121599;28;20497;-71
2024/03/16 04:21:06;;;;;;;5.35;1.33;;;;;;;11.84;100.00;100081.72;5121629;28;20118;-71
2024/03/16 04:23:37;;;;;;;3.08;1.05;;;;;;;11.84;100.00;100066.00;5124705;28;20064;-71
2024/03/16 04:26:07;;;;;;;5.38;1.55;;;;;;;11.74;100.00;100079.59;5120581;28;20380;-71
2024/03/16 04:28:37;;;;;;;7.47;1.60;;;;;;;11.77;100.00;100075.06;5122783;28;20090;-71
2024/03/16 04:31:08;;;;;;;6.65;1.98;;;;;;;11.85;100.00;100072.94;5120905;28;20040;-71
2024/03/16 04:33:38;;;;;;;3.47;1.50;;;;;;;11.94;100.00;100075.09;5123934;28;20427;-71
2024/03/16 04:36:08;;;;;;;4.38;1.17;;;;;;;11.83;100.00;100074.78;5120190;28;20034;-71
2024/03/16 04:38:39;;;;;;;5.35;1.40;;;;;;;11.87;100.00;100076.34;5121025;28;20034;-71
2024/03/16 04:41:09;;;;;;;4.45;1.35;;;;;;;11.85;100.00;100075.56;5116724;28;20070;-71
2024/03/16 04:43:41;;;;;;;5.65;1.40;;;;;;;11.89;100.00;100082.34;5121690;28;20142;-71
2024/03/16 04:46:11;;;;;;;5.13;1.70;;;;;;;11.91;100.00;100082.25;5121376;28;20031;-71
2024/03/16 04:48:41;;;;;;;6.13;2.25;;;;;;;11.95;100.00;100079.41;5121194;28;20241;-71
2024/03/16 04:51:14;;;;;;;6.53;2.03;;;;;;;11.97;100.00;100076.72;5121360;28;20089;-71
2024/03/16 04:53:44;;;;;;;6.55;2.00;;;;;;;11.90;100.00;100080.56;5121916;28;20106;-71
2024/03/16 04:56:15;;;;;;;6.40;1.80;;;;;;;12.07;100.00;100084.06;5121337;28;20452;-71
2024/03/16 04:58:45;;;;;;;6.22;1.83;;;;;;;11.97;100.00;100080.19;5124824;28;20067;-71
2024/03/16 05:01:16;;;;;;;3.58;1.50;;;;;;;11.87;100.00;100081.56;5121477;28;20728;-71
2024/03/16 05:03:47;;;;;;;4.97;1.85;;;;;;;11.88;100.00;100083.25;5128263;28;20040;-71
2024/03/16 05:06:17;;;;;;;5.32;1.90;;;;;;;11.88;100.00;100083.25;5126063;28;20058;-71
2024/03/16 05:08:47;;;;;;;5.95;1.63;;;;;;;11.88;100.00;100075.41;5122995;28;20023;-71
2024/03/16 05:11:17;;;;;;;6.95;1.90;;;;;;;11.84;100.00;100086.97;5120529;28;20049;-71
2024/03/16 05:13:48;;;;;;;4.85;1.60;;;;;;;11.87;100.00;100085.94;5126128;28;20035;-71
2024/03/16 05:16:18;;;;;;;7.03;1.75;;;;;;;11.88;100.00;100088.50;5125250;28;20061;-71
2024/03/16 05:18:48;;;;;;;4.32;1.58;;;;;;;11.92;100.00;100081.34;5126182;28;20081;-71
2024/03/16 05:21:19;;;;;;;6.38;1.80;;;;;;;11.82;100.00;100080.91;5124932;28;21443;-71
2024/03/16 05:23:49;;;;;;;3.78;1.52;;;;;;;11.95;100.00;100086.44;5124329;28;20042;-71
2024/03/16 05:26:20;;;;;;;6.20;1.83;;;;;;;11.87;100.00;100085.94;5124776;28;20046;-71
2024/03/16 05:28:50;;;;;;;7.82;1.70;;;;;;;11.96;100.00;100081.09;5127614;28;20032;-71
2024/03/16 05:31:20;;;;;;;5.43;2.00;;;;;;;11.97;100.00;100087.22;5123982;28;20042;-72
2024/03/16 05:33:51;;;;;;;4.38;1.80;;;;;;;11.86;100.00;100076.41;5124175;28;20034;-71
2024/03/16 05:36:21;;;;;;;4.90;1.75;;;;;;;11.92;100.00;100078.72;5123783;28;20031;-71
2024/03/16 05:38:52;;;;;;;3.47;1.50;;;;;;;11.83;100.00;100074.78;5124185;28;20072;-71
2024/03/16 05:41:22;;;;;;;6.78;1.70;;;;;;;11.77;100.00;100075.06;5124714;28;20043;-71
2024/03/16 05:43:53;;;;;;;3.83;1.90;;;;;;;11.78;100.00;100081.16;5120264;28;20424;-71
2024/03/16 05:46:23;;;;;;;3.20;1.70;;;;;;;11.81;100.00;100088.88;5126386;28;20111;-71
2024/03/16 05:48:53;;;;;;;4.47;2.08;;;;;;;11.74;100.00;100077.84;5122645;28;20778;-71
2024/03/16 05:51:24;;;;;;;5.43;1.58;;;;;;;11.74;100.00;100085.69;5125935;28;20075;-71
2024/03/16 05:53:56;;;;;;;3.42;1.60;;;;;;;11.73;100.00;100089.25;5127323;28;20031;-71
2024/03/16 05:56:26;;;;;;;4.07;1.55;;;;;;;11.80;100.00;100082.78;5126197;28;20035;-71
2024/03/16 05:58:57;;;;;;;5.20;1.83;;;;;;;11.87;100.00;100083.31;5140123;28;20170;-71
2024/03/16 06:01:27;;;;;;;6.55;1.90;;;;;;;11.89;100.00;100090.19;5140206;28;20026;-71
2024/03/16 06:03:57;;;;;;;4.88;1.70;;;;;;;11.90;100.00;100088.41;5127243;28;20035;-71
2024/03/16 06:06:28;;;;;;;5.10;2.05;;;;;;;11.94;100.00;100092.59;5124701;28;20372;-71
2024/03/16 06:08:58;;;;;;;4.85;1.75;;;;;;;11.93;100.00;100090.91;5126523;28;20035;-72
2024/03/16 06:11:28;;;;;;;4.32;1.88;;;;;;;11.98;100.00;100102.81;5120853;28;20577;-71
2024/03/16 06:13:59;;;;;;;4.95;1.92;;;;;;;12.08;100.00;100096.22;5125074;28;20063;-72
2024/03/16 06:16:29;;;;;;;5.18;1.75;;;;;;;12.11;100.00;100098.69;5125126;28;20113;-71
2024/03/16 06:19:00;;;;;;;5.88;1.90;;;;;;;12.12;100.00;100103.00;5126291;28;20050;-71
2024/03/16 06:21:31;;;;;;;8.25;2.30;;;;;;;12.06;100.00;100103.31;5124695;28;20118;-71
2024/03/16 06:24:03;;;;;;;6.50;2.22;;;;;;;12.20;100.00;100103.50;5127251;28;20042;-72
2024/03/16 06:26:37;;;;;;;5.00;1.98;;;;;;;12.27;100.00;100115.34;5124736;28;20059;-71
2024/03/16 06:29:10;;;;;;;4.38;1.90;;;;;;;12.30;100.00;100107.31;5123356;28;20078;-71
2024/03/16 06:31:42;;;;;;;5.35;1.70;;;;;;;12.35;99.75;100113.22;5124967;28;20019;-71
2024/03/16 06:34:13;;;;;;;5.65;2.42;;;;;;;12.33;100.00;100106.34;5120061;28;20038;-71
2024/03/16 06:36:43;;;;;;;5.47;2.28;;;;;;;12.40;100.00;100118.19;5125725;28;20033;-71
2024/03/16 06:39:13;;;;;;;6.75;2.33;;;;;;;12.48;100.00;100111.66;5121847;28;20046;-71
2024/03/16 06:41:44;;;;;;;4.68;2.00;;;;;;;12.53;98.93;100124.53;5120264;28;20031;-72
2024/03/16 06:44:14;;;;;;;5.13;2.10;;;;;;;12.41;99.07;100125.13;5122049;28;20391;-71
2024/03/16 06:46:44;;;;;;;6.90;2.25;;;;;;;12.53;97.81;100135.00;5120550;28;20651;-71
2024/03/16 06:49:16;;;;;;;5.18;2.08;;;;;;;12.46;97.78;100134.47;5122872;28;20062;-71
2024/03/16 06:51:46;;;;;;;5.25;2.10;;;;;;;12.32;99.06;100146.56;5123962;28;20525;-72
2024/03/16 06:54:16;;;;;;;6.13;2.30;;;;;;;12.39;98.26;100147.94;5118735;28;20121;-71
2024/03/16 06:56:47;;;;;;;6.53;2.17;;;;;;;12.34;98.73;100148.19;5126218;28;20431;-71
2024/03/16 06:59:17;;;;;;;5.32;1.92;;;;;;;12.37;99.76;100155.91;5136936;28;20031;-71
2024/03/16 07:01:47;;;;;;;5.15;2.08;;;;;;;12.41;98.88;100156.56;5166509;23;20077;-74
2024/03/16 07:04:18;;;;;;;5.68;2.05;;;;;;;12.48;98.84;100164.06;5137893;28;20049;-71
2024/03/16 07:06:48;;;;;;;7.13;2.10;;;;;;;12.38;98.47;100170.72;5143221;28;20050;-74
2024/03/16 07:09:18;;;;;;;6.38;2.10;;;;;;;12.45;99.86;100179.94;5137828;28;20212;-72
2024/03/16 07:11:49;;;;;;;6.10;2.20;;;;;;;12.38;100.00;100180.31;5135740;28;20109;-74
2024/03/16 07:14:19;;;;;;;5.53;2.25;;;;;;;12.39;100.00;100185.50;5130910;28;20054;-73
2024/03/16 07:16:50;;;;;;;8.38;3.20;;;;;;;12.22;100.00;100195.94;5130185;28;20126;-74
2024/03/16 07:19:23;;;;;;;4.93;2.42;;;;;;;12.22;100.00;100185.47;5131491;28;20236;-73
2024/03/16 07:21:53;;;;;;;5.50;2.88;;;;;;;12.18;100.00;100194.41;5125165;28;20031;-74
2024/03/16 07:24:24;;;;;;;5.75;2.42;;;;;;;12.14;100.00;100192.84;5130639;28;20046;-73
2024/03/16 07:26:54;;;;;;;4.15;2.50;;;;;;;12.16;100.00;100193.59;5134698;28;20058;-74
2024/03/16 07:29:25;;;;;;;5.53;2.60;;;;;;;12.22;100.00;100197.72;5134662;28;20258;-74
2024/03/16 07:31:55;;;;;;;6.50;2.72;;;;;;;12.24;100.00;100199.34;5139477;28;20395;-74
2024/03/16 07:34:25;;;;;;;6.72;2.80;;;;;;;12.32;100.00;100197.19;5134112;28;20553;-74
2024/03/16 07:36:58;;;;;;;8.30;2.70;;;;;;;12.50;100.00;100204.16;5137522;28;20034;-74
2024/03/16 07:39:28;;;;;;;6.13;2.40;;;;;;;12.51;100.00;100203.25;5135976;28;20070;-74
2024/03/16 07:41:59;;;;;;;6.28;2.50;;;;;;;12.61;100.00;100212.34;5138316;28;20034;-74
2024/03/16 07:44:31;;;;;;;5.28;2.45;;;;;;;12.71;100.00;100216.22;5143568;28;20034;-74
2024/03/16 07:47:01;;;;;;;5.78;2.50;;;;;;;12.65;100.00;100211.25;5141818;28;20065;-74
2024/03/16 07:49:31;;;;;;;6.35;2.67;;;;;;;12.69;100.00;100220.69;5144876;28;20026;-74
2024/03/16 07:52:03;;;;;;;4.00;2.25;;;;;;;12.80;100.00;100217.53;5144605;28;20100;-73
2024/03/16 07:54:35;;;;;;;6.70;2.65;;;;;;;12.78;100.00;100222.00;5144992;28;20246;-74
2024/03/16 07:57:08;;;;;;;6.15;2.80;;;;;;;12.76;100.00;100216.81;5139953;28;20265;-72
2024/03/16 07:59:39;;;;;;;7.15;2.70;;;;;;;12.90;100.00;100225.69;5140029;28;20026;-74
2024/03/16 08:02:09;;;;;;;8.43;3.17;;;;;;;12.95;100.00;100225.50;5139797;28;20030;-74
2024/03/16 08:04:40;;;;;;;6.53;2.70;;;;;;;13.09;100.00;100230.91;5136623;28;20114;-72
2024/03/16 08:07:11;;;;;;;9.55;3.40;;;;;;;13.13;100.00;100235.91;5132914;28;20071;-75
2024/03/16 08:09:41;;;;;;;6.70;3.22;;;;;;;13.31;100.00;100228.84;5131403;28;20050;-73
2024/03/16 08:12:12;;;;;;;6.20;3.08;;;;;;;13.31;99.89;100231.47;5140625;28;20061;-74
2024/03/16 08:14:42;;;;;;;5.88;2.97;;;;;;;13.14;100.00;100234.13;5138790;28;20088;-73
2024/03/16 08:17:12;;;;;;;9.30;3.78;;;;;;;12.91;100.00;100237.03;5143443;28;20080;-75
2024/03/16 08:19:43;;;;;;;7.15;3.47;;;;;;;13.01;100.00;100238.28;5138728;28;20034;-74
2024/03/16 08:22:13;;;;;;;5.60;3.13;;;;;;;12.95;100.00;100249.09;5135943;28;20029;-74
2024/03/16 08:24:43;;;;;;;6.70;3.28;;;;;;;12.85;100.00;100257.47;5140387;28;20049;-74
2024/03/16 08:27:14;;;;;;;10.07;3.40;;;;;;;12.89;100.00;100255.47;5139362;28;20077;-74
2024/03/16 08:29:44;;;;;;;9.85;3.53;;;;;;;12.82;100.00;100258.47;5138935;28;20150;-74
2024/03/16 08:32:15;;;;;;;8.32;4.18;;;;;;;12.81;100.00;100262.03;5139961;28;20094;-74
2024/03/16 08:34:45;;;;;;;8.65;3.92;;;;;;;12.80;100.00;100270.81;5142610;28;20026;-74
2024/03/16 08:37:15;;;;;;;5.43;3.35;;;;;;;12.72;100.00;100275.59;5141273;28;20023;-75
2024/03/16 08:39:45;;;;;;;5.90;3.58;;;;;;;12.64;100.00;100284.75;5146598;28;20117;-74
2024/03/16 08:42:16;;;;;;;9.00;4.43;;;;;;;12.50;100.00;100302.94;5145618;28;20065;-74
2024/03/16 08:44:46;;;;;;;11.38;4.35;;;;;;;12.45;100.00;100318.84;5144071;28;20533;-73
2024/03/16 08:47:16;;;;;;;8.77;4.35;;;;;;;12.36;100.00;100316.69;5145330;28;20026;-73
2024/03/16 08:49:47;;;;;;;7.30;3.60;;;;;;;12.21;100.00;100333.13;5143605;28;20410;-74
2024/03/16 08:52:17;;;;;;;4.65;2.40;;;;;;;11.86;100.00;100338.22;5144273;28;20026;-74
2024/03/16 08:54:48;;;;;;;4.47;2.33;;;;;;;11.62;100.00;100345.41;5134065;28;20522;-73
2024/03/16 08:57:18;;;;;;;4.95;2.20;;;;;;;11.63;100.00;100351.50;5133845;28;20054;-73
2024/03/16 08:59:49;;;;;;;4.95;2.20;;;;;;;11.67;100.00;100358.28;5142243;28;20045;-73
2024/03/16 09:02:20;;;;;;;4.82;2.33;;;;;;;11.54;100.00;100362.31;5145583;28;20037;-74
2024/03/16 09:04:55;;;;;;;5.00;2.30;;;;;;;11.52;100.00;100370.25;5143849;28;20511;-73
2024/03/16 09:07:26;;;;;;;5.32;2.08;;;;;;;11.69;100.00;100373.03;5139841;28;20478;-74
2024/03/16 10:47:03;;;;;;;13.80;4.13;;;;;;;11.64;91.64;100601.88;6211912;23;20022;-77
2024/03/16 10:49:33;;;;;;;13.52;3.95;;;;;;;11.65;90.66;100604.41;5075539;29;20064;-80
2024/03/16 10:52:04;;;;;;;14.02;3.35;;;;;;;11.44;89.91;100620.94;5083012;28;20106;-79
2024/03/16 10:54:37;;;;;;;12.25;4.53;;;;;;;11.21;90.57;100628.81;5084442;29;20032;-81
2024/03/16 10:57:07;;;;;;;9.70;2.25;;;;;;;11.13;92.18;100632.59;5087681;29;20044;-80
2024/03/16 10:59:42;;;;;;;7.40;2.60;;;;;;;11.07;92.22;100641.53;5966491;23;20014;-74
2024/03/16 11:02:12;;;;;;;17.10;4.20;;;;;;;11.14;91.55;100645.63;5107682;28;20055;-76
2024/03/16 11:07:24;;;;;;;10.32;3.30;;;;;;;11.20;90.06;100658.50;5216075;23;20275;-77
2024/03/16 11:18:18;;;;;;;10.88;2.63;;;;;;;11.82;84.14;100664.00;5093849;29;20146;-70
2024/03/16 11:20:53;;;;;;;9.25;2.33;;;;;;;11.90;82.85;100673.25;5102618;28;20273;-71
2024/03/16 11:23:27;;;;;;;9.40;3.00;;;;;;;11.66;82.30;100674.22;5099102;29;20556;-77
2024/03/16 11:26:21;;;;;;;17.10;6.63;;;;;;;11.40;83.09;100681.28;5102803;28;20033;-71
2024/03/16 11:28:52;;;;;;;16.02;6.78;;;;;;;11.05;83.08;100692.16;5865661;23;20043;-73
2024/03/16 11:34:11;;;;;;;19.20;6.35;;;;;;;10.63;83.05;100706.75;5587967;23;20059;-73
2024/03/16 11:36:48;;;;;;;21.10;6.80;;;;;;;10.46;82.97;100726.47;5102373;29;20126;-72
2024/03/16 11:39:30;;;;;;;16.23;5.57;;;;;;;10.53;83.30;100722.78;5100875;28;20148;-74
2024/03/16 11:42:07;;;;;;;17.75;5.65;;;;;;;10.49;83.84;100735.09;5104748;28;20478;-72
2024/03/16 11:44:37;;;;;;;9.52;3.20;;;;;;;10.26;82.88;100728.88;5104622;28;20289;-72
2024/03/16 11:47:09;;;;;;;13.25;2.42;;;;;;;10.29;82.53;100739.22;5103898;29;20032;-72
2024/03/16 11:49:39;;;;;;;15.50;5.75;;;;;;;10.28;82.10;100740.13;5116463;23;20061;-72
2024/03/16 11:52:09;;;;;;;17.13;5.57;;;;;;;10.42;81.72;100740.56;5093896;29;20028;-76
2024/03/16 11:54:47;;;;;;;11.50;2.80;;;;;;;10.40;81.70;100758.91;5102086;29;20047;-73
2024/03/16 11:57:18;;;;;;;11.88;3.95;;;;;;;10.44;82.06;100754.44;5098437;29;20039;-75
2024/03/16 11:59:48;;;;;;;15.48;4.75;;;;;;;10.66;80.91;100760.69;5099528;28;20034;-75
2024/03/16 12:02:19;;;;;;;7.65;2.90;;;;;;;10.90;81.53;100752.00;5108542;28;20107;-75
2024/03/16 12:04:49;;;;;;;17.77;6.05;;;;;;;11.05;79.77;100753.19;5125375;28;20212;-75
2024/03/16 12:07:24;;;;;;;22.10;7.82;;;;;;;11.14;78.87;100762.47;5108682;28;20461;-75
2024/03/16 12:09:54;;;;;;;17.58;6.28;;;;;;;11.31;76.61;100763.59;5115433;28;20030;-75
2024/03/16 12:12:24;;;;;;;12.60;4.03;;;;;;;11.49;78.13;100760.34;5116324;28;20073;-73
2024/03/16 12:15:22;;;;;;;9.85;2.28;;;;;;;11.56;77.75;100777.56;5131510;28;20089;-75
2024/03/16 12:17:52;;;;;;;12.90;4.97;;;;;;;11.63;77.77;100765.94;5118875;28;20038;-75
2024/03/16 12:20:23;;;;;;;8.60;2.70;;;;;;;11.42;76.70;100773.69;5127331;28;20688;-75
2024/03/16 12:22:55;;;;;;;8.75;2.65;;;;;;;11.55;76.11;100773.19;5124956;28;20031;-75
2024/03/16 12:25:25;;;;;;;13.50;4.50;;;;;;;11.21;77.13;100779.66;5124240;28;20026;-73
2024/03/16 12:27:59;;;;;;;14.27;4.20;;;;;;;11.08;78.99;100787.09;5124524;28;20059;-75
2024/03/16 12:30:34;;;;;;;16.27;5.20;;;;;;;11.21;78.67;100784.91;5124761;28;20409;-75
2024/03/16 12:33:10;;;;;;;10.43;2.77;;;;;;;11.08;78.12;100799.31;5125281;28;20508;-75
2024/03/16 12:35:41;;;;;;;11.15;3.70;;;;;;;11.17;77.21;100792.03;5125014;28;20027;-73
2024/03/16 12:38:12;;;;;;;12.40;3.78;;;;;;;10.91;76.11;100803.41;5124662;28;20081;-71
2024/03/16 12:40:42;;;;;;;10.43;3.03;;;;;;;11.16;76.06;100810.38;5126123;28;20115;-76
2024/03/16 12:43:12;;;;;;;12.13;3.65;;;;;;;11.10;76.26;100814.03;5118552;28;20042;-73
2024/03/16 12:45:43;;;;;;;8.57;2.58;;;;;;;11.17;76.89;100820.78;5122303;28;20506;-75
2024/03/16 12:48:13;;;;;;;14.77;2.95;;;;;;;11.15;75.12;100827.84;5123339;28;20039;-72
2024/03/16 12:50:43;;;;;;;9.88;2.92;;;;;;;11.43;76.11;100818.13;5125042;28;20034;-75
2024/03/16 12:53:14;;;;;;;15.23;4.63;;;;;;;11.56;74.61;100815.94;5125754;28;20114;-76
2024/03/16 12:55:44;;;;;;;23.45;10.32;;;;;;;11.59;73.17;100821.94;5125892;28;20489;-75
2024/03/16 12:58:15;;;;;;;9.02;2.83;;;;;;;11.72;73.23;100820.59;5120543;28;20057;-75
2024/03/16 13:00:45;;;;;;;6.60;2.38;;;;;;;11.91;72.61;100821.63;5125537;28;20387;-75
2024/03/16 13:03:16;;;;;;;4.65;1.15;;;;;;;11.78;72.28;100824.75;5122190;28;20031;-74
2024/03/16 13:05:46;;;;;;;3.20;0.90;;;;;;;11.66;71.31;100826.06;5123173;28;20038;-72
2024/03/16 13:08:16;;;;;;;4.20;1.20;;;;;;;11.78;71.29;100840.47;5118231;28;20030;-75
2024/03/16 13:10:47;;;;;;;3.95;1.55;;;;;;;11.72;71.06;100835.44;5122781;28;20042;-74
2024/03/16 13:13:17;;;;;;;3.58;1.05;;;;;;;11.44;70.82;100846.00;5125240;28;20306;-75
2024/03/16 13:15:47;;;;;;;3.13;1.10;;;;;;;11.36;71.89;100848.03;5120442;28;20022;-75
2024/03/16 13:18:17;;;;;;;3.50;0.75;;;;;;;11.20;71.80;100854.69;5122215;28;20029;-75
2024/03/16 13:20:48;;;;;;;4.70;1.30;;;;;;;11.37;71.58;100854.97;5118828;28;20125;-75
2024/03/16 13:23:18;;;;;;;3.75;0.80;;;;;;;11.36;70.53;100842.78;5119127;28;20042;-75
2024/03/16 13:25:49;;;;;;;3.20;1.02;;;;;;;11.39;69.91;100850.53;5120598;28;20031;-75
2024/03/16 13:28:20;;;;;;;4.43;1.20;;;;;;;11.37;70.57;100852.34;5120054;28;20322;-75
2024/03/16 13:30:51;;;;;;;5.22;2.00;;;;;;;11.57;70.33;100849.06;5125497;28;20033;-75